الصفحة الرئيسية
METAR-TAF:

METAR-TAF

مطار :

مطار رفحاء المحلي

رفحاء, السعودية

دائرة عرض: 29-37N, خط طول: 043-29E, ارتفاع: 449 متر

مراقبة الطقس الحالي

تاريخ ووقت الإصدار 1ساعة و 1 دقيقة قبل الساعة 04:00UTC
رياح هادئة
درجة الحرارة 33°درجة مئوية
الرطوبة 12%
ضغط 1007 hPa
الرؤية 10 كم أو أكثر
الغيوم لا تقل 1500 م ولا وجود لمزنة ركامية السحاب الأسود

METAR: OERF 190400Z 00000KT CAVOK 33/00 Q1007 NOSIG

زمن: 08:01 (05:01 UTC)

توقعات

تاريخ ووقت الإصدار 6ساعات و 1 دقيقة قبل الساعة 23:00UTC
التوقعات صالحة من19 الساعة 00 UTC إلى 20 الساعة 06 UTC
ريح 3 عقدةمن اتجاهات متغيرة
الرؤية 10 كم أو أكثر
الغيوم لا تقل 1500 م ولا وجود لمزنة ركامية السحاب الأسود
أصبح
من 19 الساعة 06 UTC إلى 19 الساعة 08 UTC
ريح 14 عقدة من الشرق/الشمال الشرقي
الرؤية 10 كم أو أكثر
غيوم قليلة على ارتفاع 3000 قدم
أصبح
من 19 الساعة 20 UTC إلى 19 الساعة 22 UTC
ريح 3 عقدةمن اتجاهات متغيرة

TAF: OERF 182300Z 1900/2006 VRB03KT CAVOK BECMG 1906/1908 07014KT 9999 FEW030 BECMG 1920/1922 VRB03KT

أرصاد الطقس والتوقعات من أكثر من 4000 مطار (تقارير الطقس للمطار METAR والتنبؤ بالطقس بالمطارTAF).

المحطات المتاحة هي النقط الصفراء والحمراء على الخريطة.

حرك المؤشر فوق النقطة لمعرفة اسم المحطة.

ثم انقر لمعرفة أرصاد وتوقعات الطقس.

لتغيير الخارطة: اضغط على الأزرار الخضراء مع رمز الصليب الأسود للتكبير. على الزر الأخضر مع شرطة للتصغير، أو على الأسهم الخضراء للخرائط المجاورة.


METAR-TAF: